Terminal Aerodrome Forecast
Issued by NWS

Home | Current Version | Previous Version | Text Only | Print | Product List | Glossary On
Versions: 1 2 3 4 5 6 7 8 9 10 11 12 13 14 15 16 17 18 19
000
FTUS46 KHNX 192320
TAFMER
TAF
KMER 192320Z 2000/2024 25010G18KT P6SM VCTS SCT035 BKN060CB
     FM200400 14007KT P6SM SCT050
     FM200900 13015G21KT 6SM -RA BR OVC050
      TEMPO 2014/2018 13020G30KT 2SM RA BR OVC030
     FM202100 23011KT P6SM VCTS BKN050CB=

USA.gov is the U.S. government's official web portal to all federal, state and local government web resources and services.